Terminal Aerodrome Forecast
Issued by NWS

Home | Current Version | Previous Version | Text Only | Print | Product List | Glossary On
Versions: 1 2 3 4 5 6 7 8 9 10 11 12 13
000
FTUS43 KEAX 151100
TAFSTJ
TAF
KSTJ 151120Z 1512/1612 10007KT P6SM -SHRA OVC035
     FM151600 11011KT P6SM -SHRA OVC025
     FM160100 13006KT P6SM SCT015 OVC035
     FM160700 15004KT 5SM BR OVC025=

USA.gov is the U.S. government's official web portal to all federal, state and local government web resources and services.